Time;durP1;ratioP1;P1;durP2;ratioP2;P2;SDS_P1;SDS_P2;PMS_P1;PMS_P2;Temp;Humidity;BMP_temperature;BMP_pressure;BME280_temperature;BME280_humidity;BME280_pressure;Samples;Min_cycle;Max_cycle;Signal;HPM_P1;HPM_P2
2022/01/09 00:02:08;;;;;;;37.20;28.15;;;;;;;;;;12546941;28;20356;-72
2022/01/09 00:08:09;;;;;;;31.80;24.75;;;;;;;;;;12550501;28;20044;-73
2022/01/09 00:14:11;;;;;;;33.33;25.58;;;;;;;;;;12533535;28;20053;-73
2022/01/09 00:20:13;;;;;;;25.88;20.70;;;;;;;;;;12550192;28;20040;-73
2022/01/09 00:26:15;;;;;;;25.88;19.52;;;;;;;;;;12551066;28;20043;-73
2022/01/09 00:32:16;;;;;;;24.13;20.45;;;;;;;;;;12550616;28;20041;-72
2022/01/09 00:38:18;;;;;;;26.60;19.75;;;;;;;;;;12549099;28;20056;-73
2022/01/09 00:44:20;;;;;;;19.00;14.80;;;;;;;;;;12550330;28;20047;-73
2022/01/09 00:50:22;;;;;;;18.10;14.87;;;;;;;;;;12548944;28;20044;-73
2022/01/09 00:56:24;;;;;;;16.87;13.37;;;;;;;;;;12549575;28;20045;-72
2022/01/09 01:02:26;;;;;;;13.63;11.52;;;;;;;;;;12548070;28;20054;-73
2022/01/09 01:08:28;;;;;;;16.90;13.10;;;;;;;;;;12547778;28;20047;-74
2022/01/09 01:14:31;;;;;;;16.38;12.82;;;;;;;;;;12548441;28;20068;-74
2022/01/09 01:20:33;;;;;;;15.40;11.98;;;;;;;;;;12547243;28;20040;-74
2022/01/09 01:26:35;;;;;;;17.90;13.88;;;;;;;;;;12547228;28;20047;-73
2022/01/09 01:32:37;;;;;;;17.63;13.95;;;;;;;;;;12548013;28;20037;-74
2022/01/09 01:38:38;;;;;;;13.50;10.70;;;;;;;;;;12547619;28;20036;-74
2022/01/09 01:44:44;;;;;;;15.88;11.65;;;;;;;;;;12546986;28;20045;-73
2022/01/09 01:50:47;;;;;;;16.98;13.00;;;;;;;;;;12546154;28;20029;-73
2022/01/09 01:56:49;;;;;;;17.52;13.95;;;;;;;;;;12545534;28;20075;-73
2022/01/09 02:02:51;;;;;;;18.50;13.52;;;;;;;;;;12546577;28;20040;-73
2022/01/09 02:08:53;;;;;;;15.65;12.30;;;;;;;;;;12528410;28;20033;-74
2022/01/09 02:14:54;;;;;;;9.93;8.68;;;;;;;;;;12545645;28;20056;-73
2022/01/09 02:20:56;;;;;;;14.18;10.60;;;;;;;;;;12545776;28;20509;-73
2022/01/09 02:26:58;;;;;;;15.15;11.73;;;;;;;;;;12545315;28;20033;-73
2022/01/09 02:33:00;;;;;;;13.18;11.68;;;;;;;;;;12544165;28;20071;-73
2022/01/09 02:39:03;;;;;;;14.25;10.93;;;;;;;;;;12545036;28;20036;-73
2022/01/09 02:45:05;;;;;;;12.40;9.10;;;;;;;;;;12544473;28;20041;-73
2022/01/09 02:51:17;;;;;;;15.20;13.17;;;;;;;;;;12542965;28;20032;-72
2022/01/09 02:57:19;;;;;;;21.65;16.73;;;;;;;;;;12544923;28;20055;-73
2022/01/09 03:03:21;;;;;;;17.25;12.70;;;;;;;;;;12543113;28;20390;-73
2022/01/09 03:09:23;;;;;;;16.13;12.75;;;;;;;;;;12542602;28;20064;-73
2022/01/09 03:15:25;;;;;;;18.55;15.30;;;;;;;;;;12542429;28;20056;-73
2022/01/09 03:21:27;;;;;;;17.65;13.82;;;;;;;;;;12542764;28;20463;-73
2022/01/09 03:27:28;;;;;;;13.27;10.18;;;;;;;;;;12543438;28;20040;-73
2022/01/09 03:33:30;;;;;;;15.18;11.23;;;;;;;;;;12542254;28;20041;-73
2022/01/09 03:39:32;;;;;;;15.85;12.90;;;;;;;;;;12551491;28;20036;-73
2022/01/09 03:45:33;;;;;;;22.23;16.63;;;;;;;;;;12536278;28;20041;-73
2022/01/09 03:51:37;;;;;;;12.43;10.30;;;;;;;;;;12552912;28;20294;-74
2022/01/09 03:57:39;;;;;;;18.58;12.73;;;;;;;;;;12551383;28;20060;-74
2022/01/09 04:03:41;;;;;;;39.17;25.00;;;;;;;;;;12551184;28;20048;-73
2022/01/09 04:09:45;;;;;;;12.13;10.88;;;;;;;;;;12552060;28;20051;-73
2022/01/09 04:15:49;;;;;;;11.82;10.00;;;;;;;;;;12550193;28;20084;-73
2022/01/09 04:21:50;;;;;;;12.18;9.98;;;;;;;;;;12551490;28;20036;-73
2022/01/09 04:27:52;;;;;;;12.07;10.63;;;;;;;;;;12550866;28;20450;-73
2022/01/09 04:33:54;;;;;;;22.95;18.55;;;;;;;;;;12549609;28;20037;-74
2022/01/09 04:39:56;;;;;;;27.90;20.83;;;;;;;;;;12551003;28;20029;-74
2022/01/09 04:45:58;;;;;;;18.95;15.25;;;;;;;;;;12550879;28;20033;-74
2022/01/09 04:52:00;;;;;;;18.95;15.48;;;;;;;;;;12550218;28;20540;-74
2022/01/09 04:58:02;;;;;;;15.68;11.43;;;;;;;;;;12548777;28;20045;-73
2022/01/09 05:04:04;;;;;;;17.60;13.52;;;;;;;;;;12549651;28;20274;-73
2022/01/09 05:10:06;;;;;;;18.70;14.32;;;;;;;;;;12547785;28;20051;-73
2022/01/09 05:16:08;;;;;;;19.58;14.88;;;;;;;;;;12548751;28;20057;-74
2022/01/09 05:22:11;;;;;;;15.35;11.77;;;;;;;;;;12549447;28;20378;-74
2022/01/09 05:28:13;;;;;;;;;;;;;;;;;;12547582;28;20028;-73
2022/01/09 05:34:15;;;;;;;19.42;14.05;;;;;;;;;;12547022;28;20358;-74
2022/01/09 05:40:19;;;;;;;19.27;12.55;;;;;;;;;;12547880;28;20040;-74
2022/01/09 05:46:20;;;;;;;10.15;8.30;;;;;;;;;;12546566;28;20474;-73
2022/01/09 05:52:22;;;;;;;11.15;8.75;;;;;;;;;;12545835;28;20037;-74
2022/01/09 05:58:23;;;;;;;12.52;9.27;;;;;;;;;;12545067;28;20041;-73
2022/01/09 06:04:25;;;;;;;13.95;11.38;;;;;;;;;;12546602;28;20040;-74
2022/01/09 06:10:31;;;;;;;15.55;12.43;;;;;;;;;;12546236;28;20044;-73
2022/01/09 06:16:33;;;;;;;15.68;11.50;;;;;;;;;;12545583;28;20053;-74
2022/01/09 06:22:35;;;;;;;14.65;11.25;;;;;;;;;;12544601;28;20036;-74
2022/01/09 06:28:36;;;;;;;13.00;10.40;;;;;;;;;;12545674;28;20048;-73
2022/01/09 06:34:39;;;;;;;19.30;17.23;;;;;;;;;;12545350;28;20048;-74
2022/01/09 06:40:41;;;;;;;19.13;16.98;;;;;;;;;;12545184;28;20033;-74
2022/01/09 06:46:43;;;;;;;14.93;12.77;;;;;;;;;;12544117;28;20049;-73
2022/01/09 06:52:45;;;;;;;17.00;14.07;;;;;;;;;;12543836;28;20033;-74
2022/01/09 06:58:47;;;;;;;13.82;10.35;;;;;;;;;;12544494;28;20049;-73
2022/01/09 07:04:48;;;;;;;11.52;8.95;;;;;;;;;;12543966;28;20035;-74
2022/01/09 07:10:50;;;;;;;14.05;10.68;;;;;;;;;;12543430;28;20470;-74
2022/01/09 07:16:52;;;;;;;22.63;17.67;;;;;;;;;;12545943;28;20057;-74
2022/01/09 07:22:53;;;;;;;13.25;11.32;;;;;;;;;;12546433;28;20029;-73
2022/01/09 07:28:55;;;;;;;15.98;14.00;;;;;;;;;;12542471;28;20037;-74
2022/01/09 07:34:57;;;;;;;17.92;13.85;;;;;;;;;;12541861;28;20041;-73
2022/01/09 07:40:58;;;;;;;12.20;9.93;;;;;;;;;;12541999;28;20040;-73
2022/01/09 07:47:00;;;;;;;14.23;11.77;;;;;;;;;;12542355;28;20045;-74
2022/01/09 07:53:02;;;;;;;11.93;10.23;;;;;;;;;;12542755;28;20165;-73
2022/01/09 07:59:04;;;;;;;7.73;6.80;;;;;;;;;;12541547;28;20048;-73
2022/01/09 08:05:06;;;;;;;12.65;10.07;;;;;;;;;;12541305;28;20029;-73
2022/01/09 08:11:07;;;;;;;15.55;12.93;;;;;;;;;;12542635;28;20029;-73
2022/01/09 08:17:09;;;;;;;13.85;12.10;;;;;;;;;;12542437;28;20410;-74
2022/01/09 08:23:11;;;;;;;12.27;10.95;;;;;;;;;;12546366;28;20043;-74
2022/01/09 08:29:14;;;;;;;18.17;16.33;;;;;;;;;;12551235;28;20029;-74
2022/01/09 08:35:16;;;;;;;15.30;13.32;;;;;;;;;;12549525;28;20040;-73
2022/01/09 08:41:18;;;;;;;13.30;10.93;;;;;;;;;;12550687;28;20040;-75
2022/01/09 08:47:19;;;;;;;13.18;11.48;;;;;;;;;;12551043;28;20402;-74
2022/01/09 08:53:21;;;;;;;12.63;11.25;;;;;;;;;;12549685;28;20029;-73
2022/01/09 08:59:23;;;;;;;12.70;11.40;;;;;;;;;;12549376;28;20044;-73
2022/01/09 09:05:25;;;;;;;18.40;15.35;;;;;;;;;;12548103;28;20025;-74
2022/01/09 09:11:26;;;;;;;17.67;15.77;;;;;;;;;;12531695;28;20044;-73
2022/01/09 09:17:28;;;;;;;17.02;14.98;;;;;;;;;;12548443;28;20053;-73
2022/01/09 09:23:30;;;;;;;18.02;16.15;;;;;;;;;;12548747;28;20386;-73
2022/01/09 09:29:32;;;;;;;15.57;14.02;;;;;;;;;;12547011;28;20044;-73
2022/01/09 09:35:33;;;;;;;12.18;10.88;;;;;;;;;;12546732;28;20055;-73
2022/01/09 09:41:35;;;;;;;20.25;15.70;;;;;;;;;;12546059;28;20505;-74
2022/01/09 09:47:38;;;;;;;12.60;11.33;;;;;;;;;;12546259;28;20041;-74
2022/01/09 09:53:40;;;;;;;;;;;;;;;;;;12546476;28;20037;-74
2022/01/09 09:59:42;;;;;;;10.93;9.90;;;;;;;;;;12545544;28;19916;-75
2022/01/09 10:05:44;;;;;;;11.85;10.60;;;;;;;;;;12528462;28;20438;-74
2022/01/09 10:11:46;;;;;;;11.80;10.55;;;;;;;;;;12544793;28;20033;-74
2022/01/09 10:17:48;;;;;;;21.90;19.65;;;;;;;;;;12544806;28;20057;-74
2022/01/09 10:23:50;;;;;;;;;;;;;;;;;;12528432;28;20033;-74
2022/01/09 10:29:52;;;;;;;12.38;11.07;;;;;;;;;;12544195;28;19915;-73
2022/01/09 10:35:53;;;;;;;15.70;14.18;;;;;;;;;;12527297;28;20044;-74
2022/01/09 10:41:57;;;;;;;12.13;10.98;;;;;;;;;;12544432;28;20044;-73
2022/01/09 10:48:06;;;;;;;16.83;15.23;;;;;;;;;;12544882;28;20036;-74
2022/01/09 10:54:08;;;;;;;14.98;13.57;;;;;;;;;;12526661;28;20087;-74
2022/01/09 11:00:10;;;;;;;13.45;12.23;;;;;;;;;;12544010;28;20025;-74
2022/01/09 11:06:32;;;;;;;14.80;13.52;;;;;;;;;;12542877;28;20044;-73
2022/01/09 11:12:45;;;;;;;15.50;14.10;;;;;;;;;;12543408;28;20057;-73
2022/01/09 11:18:47;;;;;;;;;;;;;;;;;;12544468;28;20041;-74
2022/01/09 11:24:52;;;;;;;18.83;16.85;;;;;;;;;;12543587;28;20290;-74
2022/01/09 11:30:59;;;;;;;19.77;17.67;;;;;;;;;;12544043;28;20037;-73
2022/01/09 11:37:40;;;;;;;18.30;16.45;;;;;;;;;;12525326;28;20056;-73
2022/01/09 11:43:59;;;;;;;19.70;17.10;;;;;;;;;;12543039;28;20151;-74
2022/01/09 11:50:00;;;;;;;18.35;16.65;;;;;;;;;;12542934;28;20037;-72
2022/01/09 11:56:02;;;;;;;13.93;12.65;;;;;;;;;;12543202;28;20037;-73
2022/01/09 12:02:04;;;;;;;14.98;13.48;;;;;;;;;;12551165;28;20036;-73
2022/01/09 12:08:08;;;;;;;18.13;16.27;;;;;;;;;;12552036;28;20033;-73
2022/01/09 12:14:10;;;;;;;15.02;13.32;;;;;;;;;;12550412;28;20068;-73
2022/01/09 12:20:15;;;;;;;13.95;12.57;;;;;;;;;;12551462;28;20040;-73
2022/01/09 12:26:26;;;;;;;16.40;14.77;;;;;;;;;;12549890;28;20479;-74
2022/01/09 12:32:38;;;;;;;17.77;15.90;;;;;;;;;;12549910;28;20041;-74
2022/01/09 12:38:51;;;;;;;19.73;17.70;;;;;;;;;;12549232;28;20044;-73
2022/01/09 12:44:56;;;;;;;16.77;15.07;;;;;;;;;;12549560;28;20048;-74
2022/01/09 12:51:07;;;;;;;20.48;18.50;;;;;;;;;;12548751;28;20032;-74
2022/01/09 12:57:10;;;;;;;17.05;15.40;;;;;;;;;;12549861;28;20398;-74
2022/01/09 13:03:17;;;;;;;16.70;15.02;;;;;;;;;;12549553;28;20040;-73
2022/01/09 13:09:21;;;;;;;16.77;15.15;;;;;;;;;;12531205;28;20033;-74
2022/01/09 13:15:31;;;;;;;23.75;20.67;;;;;;;;;;12531211;28;20065;-73
2022/01/09 13:21:35;;;;;;;33.45;29.77;;;;;;;;;;12548296;28;20037;-74
2022/01/09 13:27:38;;;;;;;20.13;17.92;;;;;;;;;;12547872;28;20056;-74
2022/01/09 13:33:53;;;;;;;17.55;15.85;;;;;;;;;;12546750;28;20430;-73
2022/01/09 13:39:58;;;;;;;13.10;11.80;;;;;;;;;;12546426;28;20126;-73
2022/01/09 13:46:10;;;;;;;11.98;10.70;;;;;;;;;;12546215;28;20060;-74
2022/01/09 13:52:16;;;;;;;12.50;11.30;;;;;;;;;;12545633;28;20040;-73
2022/01/09 13:58:19;;;;;;;12.23;11.02;;;;;;;;;;12546759;28;20041;-74
2022/01/09 14:04:21;;;;;;;12.60;11.30;;;;;;;;;;12546575;28;20044;-75
2022/01/09 14:10:35;;;;;;;13.57;12.27;;;;;;;;;;12546152;28;20033;-73
2022/01/09 14:16:37;;;;;;;14.77;13.32;;;;;;;;;;12544567;28;20057;-73
2022/01/09 14:22:43;;;;;;;9.35;8.52;;;;;;;;;;12543683;28;20493;-74
2022/01/09 14:28:45;;;;;;;12.35;11.18;;;;;;;;;;12543607;28;20490;-74
2022/01/09 14:34:47;;;;;;;12.70;11.50;;;;;;;;;;12543376;28;20516;-73
2022/01/09 14:40:53;;;;;;;10.57;9.60;;;;;;;;;;12543542;28;20033;-73
2022/01/09 14:46:54;;;;;;;11.50;10.35;;;;;;;;;;12543922;28;20036;-75
2022/01/09 14:52:57;;;;;;;11.38;10.35;;;;;;;;;;12542982;28;20033;-75
2022/01/09 14:58:59;;;;;;;16.90;15.23;;;;;;;;;;12544078;28;20056;-74
2022/01/09 15:05:00;;;;;;;13.20;12.00;;;;;;;;;;12543922;28;20040;-74
2022/01/09 15:11:02;;;;;;;14.77;13.38;;;;;;;;;;12543956;28;20025;-74
2022/01/09 15:17:04;;;;;;;15.38;13.98;;;;;;;;;;12543422;28;20061;-73
2022/01/09 15:23:07;;;;;;;14.55;13.35;;;;;;;;;;12543893;28;20482;-74
2022/01/09 15:29:08;;;;;;;;;;;;;;;;;;12544112;28;20028;-73
2022/01/09 15:35:10;;;;;;;16.02;14.43;;;;;;;;;;12552408;28;20281;-74
2022/01/09 15:41:12;;;;;;;14.52;13.23;;;;;;;;;;12553386;28;20029;-73
2022/01/09 15:47:13;;;;;;;13.52;12.32;;;;;;;;;;12554429;28;20049;-73
2022/01/09 15:53:15;;;;;;;14.80;13.30;;;;;;;;;;12553899;28;20033;-74
2022/01/09 15:59:17;;;;;;;11.93;10.68;;;;;;;;;;12552610;28;20474;-75
2022/01/09 16:05:19;;;;;;;12.88;11.45;;;;;;;;;;12552617;28;20354;-74
2022/01/09 16:11:21;;;;;;;15.48;13.93;;;;;;;;;;12552155;28;20470;-73
2022/01/09 16:17:23;;;;;;;16.00;14.48;;;;;;;;;;12533742;28;20060;-74
2022/01/09 16:23:25;;;;;;;20.40;18.48;;;;;;;;;;12535165;28;20033;-73
2022/01/09 16:29:27;;;;;;;17.60;16.00;;;;;;;;;;12554917;28;20029;-74
2022/01/09 16:35:29;;;;;;;16.70;15.20;;;;;;;;;;12554186;28;20041;-74
2022/01/09 16:41:31;;;;;;;17.92;16.33;;;;;;;;;;12551416;28;20036;-74
2022/01/09 16:47:33;;;;;;;23.50;20.90;;;;;;;;;;12549863;28;20044;-74
2022/01/09 16:53:37;;;;;;;18.45;16.60;;;;;;;;;;12548989;28;20029;-73
2022/01/09 16:59:38;;;;;;;16.52;15.02;;;;;;;;;;12549543;28;20103;-73
2022/01/09 17:05:40;;;;;;;21.48;19.33;;;;;;;;;;12549523;28;20033;-74
2022/01/09 17:11:42;;;;;;;26.10;23.48;;;;;;;;;;12547777;28;20036;-74
2022/01/09 17:17:47;;;;;;;27.17;24.23;;;;;;;;;;12531269;28;20518;-75
2022/01/09 17:23:49;;;;;;;23.58;21.25;;;;;;;;;;12547607;28;20033;-74
2022/01/09 17:29:51;;;;;;;19.67;17.67;;;;;;;;;;12547482;28;20029;-74
2022/01/09 17:35:53;;;;;;;15.65;14.00;;;;;;;;;;12548119;28;20056;-74
2022/01/09 17:41:55;;;;;;;18.38;16.65;;;;;;;;;;12546836;28;20028;-73
2022/01/09 17:47:57;;;;;;;15.25;13.75;;;;;;;;;;12548884;28;20041;-74
2022/01/09 17:53:59;;;;;;;16.98;14.90;;;;;;;;;;12546328;28;20040;-74
2022/01/09 18:00:00;;;;;;;16.50;15.00;;;;;;;;;;12545540;28;20033;-74
2022/01/09 18:06:03;;;;;;;14.45;13.15;;;;;;;;;;12548241;28;20025;-75
2022/01/09 18:12:05;;;;;;;11.13;10.13;;;;;;;;;;12529264;28;20179;-73
2022/01/09 18:18:07;;;;;;;15.43;13.85;;;;;;;;;;12528131;28;20064;-74
2022/01/09 18:24:12;;;;;;;15.10;13.68;;;;;;;;;;12544556;28;20391;-74
2022/01/09 18:30:13;;;;;;;14.57;13.18;;;;;;;;;;12544357;28;20033;-74
2022/01/09 18:36:15;;;;;;;15.93;14.45;;;;;;;;;;12545345;28;20045;-73
2022/01/09 18:42:17;;;;;;;14.43;12.95;;;;;;;;;;12527298;28;20029;-74
2022/01/09 18:48:21;;;;;;;14.95;13.38;;;;;;;;;;12527350;28;20126;-74
2022/01/09 18:54:22;;;;;;;17.20;15.70;;;;;;;;;;12527187;28;20099;-73
2022/01/09 19:00:24;;;;;;;15.70;14.18;;;;;;;;;;12543173;28;20032;-73
2022/01/09 19:06:26;;;;;;;15.07;13.52;;;;;;;;;;12542605;28;20379;-76
2022/01/09 19:12:28;;;;;;;18.73;17.02;;;;;;;;;;12543873;28;20367;-74
2022/01/09 19:18:37;;;;;;;18.38;16.55;;;;;;;;;;12543814;28;20079;-75
2022/01/09 19:24:38;;;;;;;21.88;19.77;;;;;;;;;;12542748;28;20502;-75
2022/01/09 19:30:40;;;;;;;18.80;17.02;;;;;;;;;;12543918;28;20029;-73
2022/01/09 19:36:43;;;;;;;21.30;19.05;;;;;;;;;;12543374;28;20379;-75
2022/01/09 19:42:44;;;;;;;23.63;21.33;;;;;;;;;;12543337;28;20036;-74
2022/01/09 19:48:46;;;;;;;20.60;18.48;;;;;;;;;;12542898;28;20279;-74
2022/01/09 19:54:48;;;;;;;21.90;19.85;;;;;;;;;;12542681;28;20048;-73
2022/01/09 20:00:49;;;;;;;21.88;19.77;;;;;;;;;;12541830;28;20036;-74
2022/01/09 20:06:51;;;;;;;19.55;17.50;;;;;;;;;;12542839;28;20033;-73
2022/01/09 20:12:53;;;;;;;24.77;21.95;;;;;;;;;;12542315;28;20517;-74
2022/01/09 20:18:55;;;;;;;23.25;20.65;;;;;;;;;;12529183;28;20395;-74
2022/01/09 20:24:57;;;;;;;23.45;20.52;;;;;;;;;;12550580;28;20470;-74
2022/01/09 20:30:58;;;;;;;24.52;22.13;;;;;;;;;;12551381;28;20414;-74
2022/01/09 20:37:00;;;;;;;23.05;20.67;;;;;;;;;;12549640;28;20059;-74
2022/01/09 20:43:02;;;;;;;28.85;25.70;;;;;;;;;;12549642;28;20040;-74
2022/01/09 20:49:04;;;;;;;32.78;29.52;;;;;;;;;;12532384;28;20044;-74
2022/01/09 20:55:06;;;;;;;30.30;27.10;;;;;;;;;;12550313;28;20402;-74
2022/01/09 21:01:08;;;;;;;28.52;25.75;;;;;;;;;;12548728;28;20033;-74
2022/01/09 21:07:10;;;;;;;24.45;22.13;;;;;;;;;;12548288;28;20438;-73
2022/01/09 21:13:11;;;;;;;27.15;24.48;;;;;;;;;;12549097;28;20524;-73
2022/01/09 21:19:13;;;;;;;23.88;21.38;;;;;;;;;;12549026;28;20045;-74
2022/01/09 21:25:15;;;;;;;23.42;20.83;;;;;;;;;;12531169;28;20048;-74
2022/01/09 21:31:16;;;;;;;23.63;21.40;;;;;;;;;;12547103;28;20037;-74
2022/01/09 21:37:18;;;;;;;23.25;20.95;;;;;;;;;;12548258;28;20052;-74
2022/01/09 21:43:21;;;;;;;18.70;16.88;;;;;;;;;;12547097;28;20033;-74
2022/01/09 21:49:22;;;;;;;16.52;13.40;;;;;;;;;;12547777;28;20426;-74
2022/01/09 21:55:24;;;;;;;30.85;27.65;;;;;;;;;;12547496;28;20052;-74
2022/01/09 22:01:26;;;;;;;23.50;21.05;;;;;;;;;;12547979;28;20037;-73
2022/01/09 22:07:27;;;;;;;26.58;23.85;;;;;;;;;;12546838;28;20033;-74
2022/01/09 22:13:29;;;;;;;22.92;20.27;;;;;;;;;;12546552;28;20064;-74
2022/01/09 22:19:32;;;;;;;16.90;15.10;;;;;;;;;;12544699;28;20048;-74
2022/01/09 22:25:33;;;;;;;20.97;19.00;;;;;;;;;;12544933;28;20041;-74
2022/01/09 22:31:35;;;;;;;17.40;15.55;;;;;;;;;;12544656;28;20044;-74
2022/01/09 22:37:37;;;;;;;16.42;14.38;;;;;;;;;;12545335;28;20048;-74
2022/01/09 22:43:41;;;;;;;34.15;30.42;;;;;;;;;;12544276;28;20491;-74
2022/01/09 22:49:44;;;;;;;29.63;26.38;;;;;;;;;;12543812;28;20048;-75
2022/01/09 22:55:45;;;;;;;23.63;21.13;;;;;;;;;;12543699;28;20045;-74
2022/01/09 23:01:47;;;;;;;32.35;28.90;;;;;;;;;;12544447;28;20029;-74
2022/01/09 23:07:49;;;;;;;32.22;26.05;;;;;;;;;;12543122;28;20040;-74
2022/01/09 23:13:51;;;;;;;38.20;34.03;;;;;;;;;;12542580;28;20063;-74
2022/01/09 23:19:53;;;;;;;31.65;28.02;;;;;;;;;;12542930;28;20049;-75
2022/01/09 23:25:58;;;;;;;29.08;25.65;;;;;;;;;;12542697;28;20044;-75
2022/01/09 23:31:59;;;;;;;26.75;23.88;;;;;;;;;;12542579;28;20218;-74
2022/01/09 23:38:01;;;;;;;29.33;26.10;;;;;;;;;;12542209;28;20060;-73
2022/01/09 23:44:03;;;;;;;23.40;21.00;;;;;;;;;;12542865;28;20036;-74
2022/01/09 23:50:24;;;;;;;19.60;17.52;;;;;;;;;;12542660;28;20028;-73
2022/01/09 23:56:26;;;;;;;15.77;14.13;;;;;;;;;;12553057;28;20041;-73
